createdAt,value
2022-07-27T00:02:25.564Z,15.70
2022-07-27T00:04:57.331Z,15.68
2022-07-27T00:07:27.838Z,15.66
2022-07-27T00:09:58.484Z,15.64
2022-07-27T00:12:26.436Z,15.57
2022-07-27T00:14:59.344Z,15.62
2022-07-27T00:17:43.558Z,15.62
2022-07-27T00:20:13.487Z,15.61
2022-07-27T00:22:41.901Z,15.61
2022-07-27T00:25:14.818Z,15.56
2022-07-27T00:27:44.509Z,15.50
2022-07-27T00:30:12.630Z,15.47
2022-07-27T00:32:45.926Z,15.46
2022-07-27T00:35:18.470Z,15.47
2022-07-27T00:37:46.398Z,15.49
2022-07-27T00:40:17.033Z,15.43
2022-07-27T00:42:46.702Z,15.51
2022-07-27T00:45:17.796Z,15.50
2022-07-27T00:47:45.898Z,15.54
2022-07-27T00:50:16.308Z,15.56
2022-07-27T00:52:48.576Z,15.43
2022-07-27T00:55:18.225Z,15.47
2022-07-27T00:57:58.488Z,15.42
2022-07-27T01:00:28.592Z,15.43
2022-07-27T01:02:57.353Z,15.41
2022-07-27T01:05:35.765Z,15.41
2022-07-27T01:08:08.479Z,15.42
2022-07-27T01:10:45.731Z,15.39
2022-07-27T01:13:14.395Z,15.41
2022-07-27T01:15:51.075Z,15.39
2022-07-27T01:18:39.428Z,15.33
2022-07-27T01:21:09.969Z,15.19
2022-07-27T01:23:39.434Z,15.22
2022-07-27T01:26:07.863Z,15.18
2022-07-27T01:28:43.030Z,15.17
2022-07-27T01:31:11.051Z,15.18
2022-07-27T01:33:38.982Z,15.15
2022-07-27T01:36:07.172Z,15.10
2022-07-27T01:38:35.056Z,15.08
2022-07-27T01:41:04.326Z,15.05
2022-07-27T01:43:32.353Z,15.04
2022-07-27T01:46:04.198Z,14.98
2022-07-27T01:48:34.848Z,14.98
2022-07-27T01:51:02.868Z,14.97
2022-07-27T01:53:33.998Z,14.96
2022-07-27T01:56:01.986Z,14.84
2022-07-27T01:58:31.302Z,14.82
2022-07-27T02:00:59.244Z,14.77
2022-07-27T02:03:27.233Z,14.75
2022-07-27T02:05:55.481Z,14.72
2022-07-27T02:08:23.424Z,14.66
2022-07-27T02:11:08.940Z,14.63
2022-07-27T02:13:40.515Z,14.60
2022-07-27T02:16:16.553Z,14.62
2022-07-27T02:18:45.905Z,14.65
2022-07-27T02:21:19.490Z,14.64
2022-07-27T02:23:50.318Z,14.64
2022-07-27T02:26:18.260Z,14.59
2022-07-27T02:28:49.773Z,14.58
2022-07-27T02:31:17.766Z,14.51
2022-07-27T02:33:45.714Z,14.50
2022-07-27T02:36:14.502Z,14.47
2022-07-27T02:38:42.432Z,14.43
2022-07-27T02:41:12.719Z,14.41
2022-07-27T02:43:47.991Z,14.38
2022-07-27T02:46:20.560Z,14.39
2022-07-27T02:48:48.623Z,14.46
2022-07-27T02:51:19.311Z,14.48
2022-07-27T02:53:47.492Z,14.46
2022-07-27T02:56:26.934Z,14.37
2022-07-27T02:58:55.216Z,14.38
2022-07-27T03:01:24.624Z,14.29
2022-07-27T03:03:55.071Z,14.20
2022-07-27T03:06:23.085Z,14.16
2022-07-27T03:08:52.495Z,14.12
2022-07-27T03:11:20.459Z,14.07
2022-07-27T03:13:48.373Z,14.08
2022-07-27T03:16:16.267Z,14.11
2022-07-27T03:18:49.767Z,14.11
2022-07-27T03:21:17.874Z,14.06
2022-07-27T03:23:45.785Z,14.06
2022-07-27T03:26:13.953Z,14.02
2022-07-27T03:28:41.795Z,13.98
2022-07-27T03:31:09.716Z,14.02
2022-07-27T03:33:37.933Z,14.05
2022-07-27T03:36:08.328Z,14.02
2022-07-27T03:38:39.357Z,13.95
2022-07-27T03:41:09.970Z,13.92
2022-07-27T03:43:40.190Z,13.95
2022-07-27T03:46:19.964Z,14.02
2022-07-27T03:48:47.897Z,14.07
2022-07-27T03:51:17.148Z,14.12
2022-07-27T03:53:45.068Z,14.14
2022-07-27T03:56:12.984Z,14.16
2022-07-27T03:58:41.475Z,14.18
2022-07-27T04:01:09.551Z,14.22
2022-07-27T04:03:44.121Z,14.28
2022-07-27T04:06:19.626Z,14.36
2022-07-27T04:08:47.605Z,14.45
2022-07-27T04:11:19.355Z,14.51
2022-07-27T04:13:50.096Z,14.51
2022-07-27T04:16:18.763Z,14.52
2022-07-27T04:18:46.626Z,14.49
2022-07-27T04:21:16.145Z,14.41
2022-07-27T04:23:46.833Z,14.35
2022-07-27T04:26:15.695Z,14.32
2022-07-27T04:28:45.975Z,14.38
2022-07-27T04:31:14.591Z,14.45
2022-07-27T04:33:49.843Z,14.53
2022-07-27T04:36:17.888Z,14.60
2022-07-27T04:38:47.231Z,14.65
2022-07-27T04:41:15.112Z,14.68
2022-07-27T04:44:08.370Z,14.71
2022-07-27T04:46:39.309Z,14.80
2022-07-27T04:49:07.416Z,14.82
2022-07-27T04:51:38.386Z,14.85
2022-07-27T04:54:07.763Z,14.84
2022-07-27T04:56:35.645Z,14.80
2022-07-27T04:59:03.805Z,14.81
2022-07-27T05:01:35.381Z,14.86
2022-07-27T05:04:04.033Z,14.97
2022-07-27T05:06:33.112Z,15.11
2022-07-27T05:09:04.879Z,15.28
2022-07-27T05:11:34.187Z,15.36
2022-07-27T05:14:15.189Z,15.86
2022-07-27T05:16:58.708Z,17.12
2022-07-27T05:19:39.925Z,18.23
2022-07-27T05:22:09.166Z,18.84
2022-07-27T05:24:42.478Z,19.36
2022-07-27T05:27:12.194Z,18.99
2022-07-27T05:29:40.574Z,18.69
2022-07-27T05:32:14.660Z,18.67
2022-07-27T05:34:43.504Z,18.38
2022-07-27T05:37:14.642Z,19.06
2022-07-27T05:39:42.489Z,20.05
2022-07-27T05:42:14.782Z,20.85
2022-07-27T05:44:42.657Z,21.98
2022-07-27T05:47:15.875Z,23.29
2022-07-27T05:49:46.722Z,23.91
2022-07-27T05:52:17.032Z,24.70
2022-07-27T05:54:46.593Z,25.43
2022-07-27T05:57:16.105Z,25.45
2022-07-27T05:59:44.053Z,25.26
2022-07-27T06:02:14.003Z,25.37
2022-07-27T06:04:42.528Z,25.64
2022-07-27T06:07:41.834Z,25.97
2022-07-27T06:10:11.985Z,25.72
2022-07-27T06:12:43.079Z,25.47
2022-07-27T06:15:12.650Z,25.36
2022-07-27T06:17:43.637Z,25.69
2022-07-27T06:20:14.108Z,25.68
2022-07-27T06:22:50.396Z,25.73
2022-07-27T06:25:19.718Z,25.84
2022-07-27T06:27:49.280Z,25.26
2022-07-27T06:30:19.149Z,24.92
2022-07-27T06:32:48.810Z,24.14
2022-07-27T06:35:17.868Z,23.94
2022-07-27T06:37:52.699Z,23.34
2022-07-27T06:40:21.165Z,22.64
2022-07-27T06:42:50.371Z,22.26
2022-07-27T06:45:18.303Z,21.51
2022-07-27T06:47:50.498Z,21.06
2022-07-27T06:50:19.059Z,20.85
2022-07-27T06:52:47.210Z,20.55
2022-07-27T06:55:17.985Z,20.16
2022-07-27T06:57:46.571Z,19.67
2022-07-27T07:00:19.137Z,19.40
2022-07-27T07:02:54.921Z,19.32
2022-07-27T07:05:23.074Z,19.27
2022-07-27T07:07:51.377Z,19.20
2022-07-27T07:10:23.904Z,19.21
2022-07-27T07:12:55.510Z,19.04
2022-07-27T07:15:27.816Z,19.02
2022-07-27T07:17:55.760Z,19.03
2022-07-27T07:20:24.151Z,19.08
2022-07-27T07:22:52.161Z,19.04
2022-07-27T07:25:20.190Z,19.20
2022-07-27T07:27:48.671Z,19.33
2022-07-27T07:30:19.251Z,19.52
2022-07-27T07:32:48.626Z,19.63
2022-07-27T07:35:17.018Z,19.62
2022-07-27T07:37:45.237Z,19.33
2022-07-27T07:40:42.049Z,19.06
2022-07-27T07:43:09.570Z,18.69
2022-07-27T07:45:50.798Z,18.64
2022-07-27T07:48:22.483Z,18.97
2022-07-27T07:50:53.681Z,19.16
2022-07-27T07:53:23.333Z,19.11
2022-07-27T07:55:52.193Z,19.11
2022-07-27T07:58:20.231Z,19.22
2022-07-27T08:00:54.483Z,19.18
2022-07-27T08:03:24.331Z,19.35
2022-07-27T08:05:52.417Z,19.40
2022-07-27T08:08:20.584Z,19.17
2022-07-27T08:10:55.259Z,19.18
2022-07-27T08:13:26.238Z,18.99
2022-07-27T08:15:54.932Z,18.87
2022-07-27T08:18:24.197Z,19.02
2022-07-27T08:20:53.701Z,19.30
2022-07-27T08:23:21.645Z,19.31
2022-07-27T08:25:52.272Z,19.30
2022-07-27T08:28:22.833Z,19.26
2022-07-27T08:30:51.091Z,19.27
2022-07-27T08:33:19.495Z,19.26
2022-07-27T08:36:03.767Z,19.35
2022-07-27T08:38:31.792Z,19.32
2022-07-27T08:41:03.715Z,19.42
2022-07-27T08:43:33.082Z,19.53
2022-07-27T08:46:02.157Z,19.98
2022-07-27T08:48:31.621Z,19.90
2022-07-27T08:50:59.984Z,19.60
2022-07-27T08:53:52.659Z,19.47
2022-07-27T08:56:24.078Z,19.50
2022-07-27T08:58:52.119Z,19.66
2022-07-27T09:01:20.825Z,19.66
2022-07-27T09:03:51.856Z,19.77
2022-07-27T09:06:42.473Z,19.93
2022-07-27T09:09:13.486Z,20.24
2022-07-27T09:11:43.005Z,20.20
2022-07-27T09:14:14.425Z,19.96
2022-07-27T09:17:44.201Z,19.97
2022-07-27T09:19:54.210Z,19.96
2022-07-27T09:22:43.076Z,19.72
2022-07-27T09:25:14.077Z,19.75
2022-07-27T09:27:43.485Z,19.94
2022-07-27T09:30:16.950Z,20.16
2022-07-27T09:32:57.895Z,20.07
2022-07-27T09:35:38.409Z,20.16
2022-07-27T09:38:21.327Z,20.63
2022-07-27T09:41:00.655Z,21.16
2022-07-27T09:46:29.181Z,20.83
2022-07-27T09:48:57.188Z,20.61
2022-07-27T09:54:18.137Z,20.28
2022-07-27T09:56:47.801Z,20.22
2022-07-27T09:59:20.425Z,20.38
2022-07-27T10:01:55.889Z,20.91
2022-07-27T10:04:27.740Z,21.33
2022-07-27T10:07:04.687Z,21.52
2022-07-27T10:09:35.933Z,21.44
2022-07-27T10:12:09.584Z,21.63
2022-07-27T10:14:37.927Z,21.61
2022-07-27T10:17:07.827Z,21.62
2022-07-27T10:19:46.101Z,21.57
2022-07-27T10:22:17.564Z,21.37
2022-07-27T10:24:48.798Z,21.32
2022-07-27T10:27:30.782Z,21.23
2022-07-27T10:29:59.708Z,21.49
2022-07-27T10:32:31.592Z,21.55
2022-07-27T10:35:02.941Z,21.46
2022-07-27T10:37:32.463Z,21.16
2022-07-27T10:40:19.771Z,20.80
2022-07-27T10:42:54.357Z,20.67
2022-07-27T10:45:23.395Z,20.76
2022-07-27T10:47:53.405Z,21.07
2022-07-27T10:50:33.049Z,21.28
2022-07-27T10:53:04.092Z,21.67
2022-07-27T10:55:49.012Z,21.80
2022-07-27T10:58:53.203Z,21.58
2022-07-27T11:01:24.787Z,21.47
2022-07-27T11:03:55.986Z,21.26
2022-07-27T11:06:37.555Z,21.11
2022-07-27T11:12:05.322Z,21.31
2022-07-27T11:14:47.208Z,21.22
2022-07-27T11:20:14.941Z,21.67
2022-07-27T11:23:20.848Z,21.86
2022-07-27T11:25:39.196Z,21.60
2022-07-27T11:28:08.464Z,21.41
2022-07-27T11:30:38.311Z,21.43
2022-07-27T11:33:07.294Z,21.43
2022-07-27T11:35:36.418Z,21.28
2022-07-27T11:38:06.844Z,21.09
2022-07-27T11:43:38.716Z,21.35
2022-07-27T11:46:20.524Z,21.77
2022-07-27T11:49:11.604Z,22.25
2022-07-27T11:51:42.330Z,22.60
2022-07-27T11:54:12.064Z,22.62
2022-07-27T11:56:43.639Z,22.46
2022-07-27T11:59:17.116Z,22.23
2022-07-27T12:01:49.917Z,22.03
2022-07-27T12:04:28.615Z,21.70
2022-07-27T12:07:03.351Z,21.64
2022-07-27T12:09:39.114Z,21.69
2022-07-27T12:12:15.350Z,21.72
2022-07-27T12:14:45.978Z,21.64
2022-07-27T12:17:30.424Z,21.72
2022-07-27T12:20:02.158Z,21.74
2022-07-27T12:22:34.110Z,21.80
2022-07-27T12:25:10.039Z,21.99
2022-07-27T12:27:57.157Z,22.02
2022-07-27T12:30:33.171Z,21.95
2022-07-27T12:33:03.588Z,22.16
2022-07-27T12:35:37.215Z,22.69
2022-07-27T12:38:08.631Z,23.07
2022-07-27T12:40:45.057Z,22.58
2022-07-27T12:43:17.433Z,22.15
2022-07-27T12:45:48.462Z,22.46
2022-07-27T12:48:20.686Z,23.00
2022-07-27T12:50:59.386Z,23.12
2022-07-27T12:53:35.111Z,22.66
2022-07-27T12:56:07.846Z,22.56
2022-07-27T12:58:37.238Z,22.36
2022-07-27T13:01:06.200Z,22.41
2022-07-27T13:03:40.590Z,22.28
2022-07-27T13:06:13.025Z,22.14
2022-07-27T13:08:42.254Z,21.98
2022-07-27T13:11:10.346Z,21.92
2022-07-27T13:13:41.821Z,21.93
2022-07-27T13:16:11.645Z,22.05
2022-07-27T13:18:45.872Z,21.78
2022-07-27T13:21:14.800Z,21.66
2022-07-27T13:23:43.186Z,22.27
2022-07-27T13:26:11.135Z,22.67
2022-07-27T13:28:43.382Z,22.88
2022-07-27T13:31:27.484Z,22.74
2022-07-27T13:33:57.614Z,22.58
2022-07-27T13:36:28.715Z,22.70
2022-07-27T13:38:58.860Z,22.91
2022-07-27T13:41:26.859Z,22.92
2022-07-27T13:43:54.735Z,22.88
2022-07-27T13:46:23.181Z,22.73
2022-07-27T13:48:51.246Z,22.49
2022-07-27T13:51:22.642Z,22.60
2022-07-27T13:53:53.720Z,22.67
2022-07-27T13:56:23.754Z,22.64
2022-07-27T13:58:52.082Z,22.59
2022-07-27T14:01:20.146Z,22.66
2022-07-27T14:03:52.239Z,22.64
2022-07-27T14:06:21.961Z,22.60
2022-07-27T14:08:51.712Z,22.34
2022-07-27T14:11:22.863Z,22.53
2022-07-27T14:13:51.339Z,22.55
2022-07-27T14:16:21.039Z,22.60
2022-07-27T14:18:53.663Z,23.09
2022-07-27T14:21:23.404Z,23.47
2022-07-27T14:23:51.305Z,23.71
2022-07-27T14:26:22.595Z,23.72
2022-07-27T14:28:52.395Z,23.42
2022-07-27T14:31:20.770Z,23.01
2022-07-27T14:33:48.763Z,22.59
2022-07-27T14:36:16.873Z,22.27
2022-07-27T14:38:46.377Z,22.16
2022-07-27T14:41:14.249Z,21.87
2022-07-27T14:43:42.257Z,21.82
2022-07-27T14:46:10.265Z,21.80
2022-07-27T14:51:33.499Z,21.77
2022-07-27T14:54:02.911Z,21.65
2022-07-27T14:56:36.760Z,21.45
2022-07-27T14:59:12.644Z,21.43
2022-07-27T15:01:49.807Z,21.66
2022-07-27T15:04:17.767Z,21.78
2022-07-27T15:06:47.828Z,21.74
2022-07-27T15:09:17.558Z,21.87
2022-07-27T15:12:04.153Z,21.89
2022-07-27T15:14:33.142Z,21.66
2022-07-27T15:17:01.060Z,21.47
2022-07-27T15:19:36.372Z,21.29
2022-07-27T15:22:04.597Z,21.28
2022-07-27T15:24:38.217Z,21.40
2022-07-27T15:27:09.045Z,21.22
2022-07-27T15:29:37.414Z,21.10
2022-07-27T15:32:06.998Z,21.09
2022-07-27T15:34:34.894Z,21.20
2022-07-27T15:37:03.651Z,21.21
2022-07-27T15:39:31.595Z,21.13
2022-07-27T15:42:00.735Z,21.23
2022-07-27T15:44:34.259Z,21.37
2022-07-27T15:47:02.351Z,21.51
2022-07-27T15:49:30.526Z,21.57
2022-07-27T15:51:58.340Z,21.35
2022-07-27T15:54:30.126Z,21.25
2022-07-27T15:57:02.708Z,21.19
2022-07-27T15:59:30.833Z,21.25
2022-07-27T16:01:59.916Z,21.33
2022-07-27T16:04:28.128Z,21.32
2022-07-27T16:06:56.050Z,21.50
2022-07-27T16:09:26.827Z,21.59
2022-07-27T16:11:54.739Z,21.57
2022-07-27T16:14:24.056Z,21.51
2022-07-27T16:16:54.666Z,21.54
2022-07-27T16:19:22.718Z,21.57
2022-07-27T16:21:54.873Z,21.54
2022-07-27T16:24:38.244Z,21.44
2022-07-27T16:27:07.808Z,21.34
2022-07-27T16:29:37.249Z,21.42
2022-07-27T16:32:06.214Z,21.35
2022-07-27T16:34:39.149Z,21.39
2022-07-27T16:37:15.778Z,21.25
2022-07-27T16:39:44.506Z,21.17
2022-07-27T16:42:12.394Z,21.15
2022-07-27T16:44:42.327Z,21.12
2022-07-27T16:47:10.584Z,21.09
2022-07-27T16:49:38.501Z,21.13
2022-07-27T16:52:07.453Z,20.96
2022-07-27T16:54:39.263Z,21.02
2022-07-27T16:57:13.629Z,21.10
2022-07-27T16:59:58.916Z,21.09
2022-07-27T17:02:30.431Z,21.08
2022-07-27T17:04:58.324Z,21.13
2022-07-27T17:07:26.411Z,21.00
2022-07-27T17:09:58.343Z,20.91
2022-07-27T17:12:28.962Z,20.89
2022-07-27T17:14:58.346Z,20.84
2022-07-27T17:17:26.208Z,20.82
2022-07-27T17:19:54.152Z,20.70
2022-07-27T17:22:22.045Z,20.66
2022-07-27T17:24:57.542Z,20.64
2022-07-27T17:27:28.543Z,20.55
2022-07-27T17:29:57.910Z,20.50
2022-07-27T17:32:29.076Z,20.40
2022-07-27T17:34:56.937Z,20.39
2022-07-27T17:37:43.506Z,20.29
2022-07-27T17:40:18.119Z,20.31
2022-07-27T17:42:46.132Z,20.33
2022-07-27T17:45:21.411Z,20.33
2022-07-27T17:47:49.338Z,20.38
2022-07-27T17:50:17.241Z,20.37
2022-07-27T17:52:45.184Z,20.13
2022-07-27T17:55:13.202Z,20.31
2022-07-27T17:57:41.136Z,20.19
2022-07-27T18:00:11.445Z,20.12
2022-07-27T18:02:40.718Z,20.12
2022-07-27T18:05:09.460Z,20.00
2022-07-27T18:07:38.944Z,19.91
2022-07-27T18:10:10.206Z,19.68
2022-07-27T18:12:38.078Z,19.52
2022-07-27T18:15:24.396Z,19.56
2022-07-27T18:17:53.691Z,19.48
2022-07-27T18:20:24.388Z,19.35
2022-07-27T18:22:52.313Z,19.28
2022-07-27T18:25:21.967Z,19.25
2022-07-27T18:27:52.871Z,19.20
2022-07-27T18:30:21.079Z,19.16
2022-07-27T18:32:51.530Z,19.04
2022-07-27T18:35:20.830Z,18.98
2022-07-27T18:37:59.157Z,18.92
2022-07-27T18:40:27.269Z,18.87
2022-07-27T18:43:01.163Z,18.83
2022-07-27T18:45:34.377Z,18.87
2022-07-27T18:48:08.478Z,18.88
2022-07-27T18:50:39.587Z,18.78
2022-07-27T18:53:10.851Z,18.80
2022-07-27T18:56:08.396Z,18.74
2022-07-27T18:58:36.440Z,18.68
2022-07-27T19:01:04.712Z,18.63
2022-07-27T19:03:32.650Z,18.62
2022-07-27T19:06:03.646Z,18.61
2022-07-27T19:08:31.624Z,18.61
2022-07-27T19:11:00.233Z,18.56
2022-07-27T19:13:30.433Z,18.57
2022-07-27T19:16:00.100Z,18.60
2022-07-27T19:18:28.000Z,18.59
2022-07-27T19:21:03.376Z,18.55
2022-07-27T19:23:33.593Z,18.52
2022-07-27T19:26:01.606Z,18.49
2022-07-27T19:28:29.554Z,18.44
2022-07-27T19:30:57.547Z,18.39
2022-07-27T19:33:28.650Z,18.31
2022-07-27T19:35:57.980Z,18.23
2022-07-27T19:38:29.747Z,18.16
2022-07-27T19:40:57.663Z,18.08
2022-07-27T19:43:34.517Z,17.97
2022-07-27T19:46:02.459Z,17.92
2022-07-27T19:48:30.377Z,17.82
2022-07-27T19:51:00.942Z,17.76
2022-07-27T19:53:35.542Z,17.70
2022-07-27T19:56:04.421Z,17.62
2022-07-27T19:58:33.242Z,17.56
2022-07-27T20:01:01.408Z,17.51
2022-07-27T20:03:29.467Z,17.44
2022-07-27T20:06:03.483Z,17.44
2022-07-27T20:08:32.181Z,17.39
2022-07-27T20:11:01.764Z,17.34
2022-07-27T20:13:29.730Z,17.22
2022-07-27T20:16:00.399Z,17.22
2022-07-27T20:18:30.669Z,17.19
2022-07-27T20:20:59.196Z,17.15
2022-07-27T20:23:27.768Z,17.10
2022-07-27T20:25:58.835Z,17.09
2022-07-27T20:28:31.299Z,17.03
2022-07-27T20:30:59.282Z,16.97
2022-07-27T20:33:32.545Z,16.92
2022-07-27T20:36:05.014Z,16.89
2022-07-27T20:38:39.196Z,16.85
2022-07-27T20:41:07.136Z,16.72
2022-07-27T20:43:36.808Z,16.69
2022-07-27T20:46:05.409Z,16.64
2022-07-27T20:48:38.779Z,16.60
2022-07-27T20:51:06.663Z,16.54
2022-07-27T20:53:37.650Z,16.53
2022-07-27T20:56:06.243Z,16.49
2022-07-27T20:58:34.710Z,16.45
2022-07-27T21:01:04.238Z,16.39
2022-07-27T21:03:34.168Z,16.35
2022-07-27T21:06:02.238Z,16.10
2022-07-27T21:08:30.352Z,16.31
2022-07-27T21:11:01.270Z,16.25
2022-07-27T21:13:29.332Z,16.21
2022-07-27T21:16:04.125Z,16.17
2022-07-27T21:18:34.930Z,16.09
2022-07-27T21:21:02.885Z,16.02
2022-07-27T21:23:52.351Z,16.01
2022-07-27T21:26:23.169Z,15.99
2022-07-27T21:28:54.194Z,15.94
2022-07-27T21:31:25.931Z,15.89
2022-07-27T21:33:56.790Z,15.87
2022-07-27T21:36:25.027Z,15.85
2022-07-27T21:38:53.303Z,15.83
2022-07-27T21:41:27.483Z,15.78
2022-07-27T21:43:56.885Z,15.71
2022-07-27T21:46:26.343Z,15.66
2022-07-27T21:48:54.351Z,15.62
2022-07-27T21:51:22.479Z,15.37
2022-07-27T21:53:51.236Z,15.34
2022-07-27T21:56:21.919Z,15.54
2022-07-27T21:58:57.316Z,15.52
2022-07-27T22:01:33.956Z,15.51
2022-07-27T22:04:15.191Z,15.43
2022-07-27T22:06:46.302Z,15.41
2022-07-27T22:09:14.282Z,15.38
2022-07-27T22:11:42.253Z,15.36
2022-07-27T22:16:56.536Z,15.32
2022-07-27T22:19:26.978Z,15.30
2022-07-27T22:21:55.341Z,15.27
2022-07-27T22:24:23.324Z,15.09
2022-07-27T22:26:51.283Z,15.21
2022-07-27T22:29:19.207Z,15.18
2022-07-27T22:31:47.247Z,15.15
2022-07-27T22:34:19.708Z,15.13
2022-07-27T22:36:50.614Z,15.07
2022-07-27T22:39:20.282Z,15.06
2022-07-27T22:41:58.335Z,15.01
2022-07-27T22:44:29.125Z,14.99
2022-07-27T22:47:00.216Z,14.96
2022-07-27T22:49:32.405Z,14.91
2022-07-27T22:52:00.355Z,14.92
2022-07-27T22:54:28.776Z,14.90
2022-07-27T22:56:59.544Z,14.90
2022-07-27T22:59:27.612Z,14.84
2022-07-27T23:01:55.532Z,14.82
2022-07-27T23:04:23.623Z,14.79
2022-07-27T23:06:53.943Z,14.77
2022-07-27T23:09:24.676Z,14.76
2022-07-27T23:12:04.026Z,14.62
2022-07-27T23:14:39.201Z,14.70
2022-07-27T23:17:07.178Z,14.65
2022-07-27T23:19:37.546Z,14.66
2022-07-27T23:22:07.205Z,14.60
2022-07-27T23:25:14.734Z,14.57
2022-07-27T23:28:08.183Z,14.53
2022-07-27T23:30:42.060Z,14.51
2022-07-27T23:33:10.462Z,14.51
2022-07-27T23:35:38.440Z,14.43
2022-07-27T23:38:10.406Z,14.49
2022-07-27T23:40:41.788Z,14.46
2022-07-27T23:43:13.380Z,14.43
2022-07-27T23:45:44.449Z,14.43
2022-07-27T23:48:15.282Z,14.37
2022-07-27T23:50:46.197Z,14.36
2022-07-27T23:53:18.078Z,14.36
2022-07-27T23:55:51.230Z,14.37
2022-07-27T23:58:19.738Z,14.36
